Time;durP1;ratioP1;P1;durP2;ratioP2;P2;SDS_P1;SDS_P2;PMS_P1;PMS_P2;Temp;Humidity;BMP_temperature;BMP_pressure;BME280_temperature;BME280_humidity;BME280_pressure;Samples;Min_cycle;Max_cycle;Signal;HPM_P1;HPM_P2
2023/11/26 00:00:40;;;;;;;9.80;7.80;;;;;22.00;100321.00;;;;2063646;28;20222;-64
2023/11/26 00:01:41;;;;;;;11.03;7.57;;;;;22.00;100325.00;;;;2063404;28;20298;-64
2023/11/26 00:02:41;;;;;;;9.45;7.32;;;;;21.90;100330.00;;;;2063755;28;20706;-64
2023/11/26 00:03:41;;;;;;;9.73;7.77;;;;;21.90;100330.00;;;;2053470;28;20223;-64
2023/11/26 00:04:42;;;;;;;9.03;7.13;;;;;21.90;100330.00;;;;2063673;28;20215;-64
2023/11/26 00:05:42;;;;;;;10.47;8.10;;;;;22.00;100324.00;;;;2063437;28;20632;-64
2023/11/26 00:06:45;;;;;;;11.07;7.83;;;;;21.90;100330.00;;;;2064476;28;20247;-64
2023/11/26 00:07:45;;;;;;;11.63;8.10;;;;;21.90;100335.00;;;;2063673;28;20219;-64
2023/11/26 00:08:46;;;;;;;10.13;6.93;;;;;21.90;100330.00;;;;2054055;28;20771;-64
2023/11/26 00:09:46;;;;;;;9.80;7.53;;;;;21.90;100323.00;;;;2063779;28;20698;-64
2023/11/26 00:10:46;;;;;;;10.00;7.17;;;;;21.90;100333.00;;;;2065533;28;20850;-64
2023/11/26 00:11:47;;;;;;;10.60;7.03;;;;;21.90;100333.00;;;;2065233;28;20217;-64
2023/11/26 00:12:47;;;;;;;10.10;7.30;;;;;21.90;100335.00;;;;2063298;28;20222;-64
2023/11/26 00:13:47;;;;;;;8.80;6.50;;;;;21.90;100330.00;;;;2054006;28;20269;-64
2023/11/26 00:14:48;;;;;;;9.90;6.63;;;;;21.90;100330.00;;;;2061177;28;20227;-64
2023/11/26 00:15:49;;;;;;;9.55;6.60;;;;;21.90;100326.00;;;;2063937;28;20219;-65
2023/11/26 00:16:49;;;;;;;11.20;6.40;;;;;21.90;100325.00;;;;2062803;28;20637;-64
2023/11/26 00:17:50;;;;;;;8.47;6.23;;;;;21.90;100337.00;;;;2063142;28;20215;-64
2023/11/26 00:18:50;;;;;;;7.77;5.83;;;;;21.90;100332.00;;;;2054026;28;20222;-64
2023/11/26 00:19:50;;;;;;;7.80;6.27;;;;;21.90;100338.00;;;;2063571;28;20249;-64
2023/11/26 00:20:51;;;;;;;8.20;5.93;;;;;21.90;100331.00;;;;2069583;28;20228;-64
2023/11/26 00:21:51;;;;;;;7.57;6.10;;;;;21.80;100336.00;;;;2064847;28;20229;-64
2023/11/26 00:22:51;;;;;;;9.27;6.30;;;;;21.80;100330.00;;;;2065940;28;20654;-64
2023/11/26 00:23:52;;;;;;;8.33;5.90;;;;;21.80;100332.00;;;;2055043;28;20662;-64
2023/11/26 00:24:52;;;;;;;6.80;5.97;;;;;21.80;100326.00;;;;2063058;28;20671;-64
2023/11/26 00:25:53;;;;;;;8.50;6.20;;;;;21.80;100326.00;;;;2064524;28;20636;-64
2023/11/26 00:26:54;;;;;;;8.30;5.93;;;;;21.80;100326.00;;;;2063100;28;20698;-64
2023/11/26 00:27:54;;;;;;;6.97;5.80;;;;;21.80;100320.00;;;;2063944;28;20224;-64
2023/11/26 00:28:54;;;;;;;8.80;5.87;;;;;21.80;100336.00;;;;2054105;28;20222;-64
2023/11/26 00:29:55;;;;;;;10.90;5.80;;;;;21.80;100330.00;;;;2061462;28;20215;-64
2023/11/26 00:30:55;;;;;;;8.17;5.70;;;;;21.80;100325.00;;;;2063296;28;20222;-64
2023/11/26 00:31:55;;;;;;;6.53;4.90;;;;;21.80;100332.00;;;;2063324;28;20245;-64
2023/11/26 00:32:56;;;;;;;8.70;5.27;;;;;21.80;100330.00;;;;2062894;28;20221;-64
2023/11/26 00:33:56;;;;;;;6.33;4.57;;;;;21.80;100322.00;;;;2053998;28;20218;-64
2023/11/26 00:34:57;;;;;;;8.73;5.60;;;;;21.80;100322.00;;;;2062894;28;20222;-64
2023/11/26 00:35:57;;;;;;;7.50;5.23;;;;;21.80;100316.00;;;;2063640;28;20282;-64
2023/11/26 00:36:57;;;;;;;6.47;5.07;;;;;21.80;100332.00;;;;2063972;28;20215;-64
2023/11/26 00:37:58;;;;;;;7.97;5.30;;;;;21.80;100334.00;;;;2064144;28;20243;-64
2023/11/26 00:38:58;;;;;;;7.73;5.23;;;;;21.80;100331.00;;;;2055880;28;20227;-64
2023/11/26 00:39:59;;;;;;;6.80;4.70;;;;;21.70;100334.00;;;;2068392;28;20237;-64
2023/11/26 00:40:59;;;;;;;5.77;4.23;;;;;21.80;100320.00;;;;2058930;28;20214;-64
2023/11/26 00:41:59;;;;;;;8.30;5.00;;;;;21.70;100323.00;;;;2066539;28;20222;-64
2023/11/26 00:43:00;;;;;;;7.00;4.73;;;;;21.70;100323.00;;;;2063779;28;20215;-64
2023/11/26 00:44:00;;;;;;;5.97;4.53;;;;;21.70;100332.00;;;;2051544;28;20305;-64
2023/11/26 00:45:00;;;;;;;7.10;4.27;;;;;21.70;100335.00;;;;2063423;28;20555;-64
2023/11/26 00:46:01;;;;;;;7.00;4.50;;;;;21.80;100337.00;;;;2059375;28;20701;-64
2023/11/26 00:47:01;;;;;;;5.17;4.00;;;;;21.70;100335.00;;;;2069143;28;20717;-64
2023/11/26 00:48:01;;;;;;;11.13;5.10;;;;;21.70;100338.00;;;;2061765;28;20666;-64
2023/11/26 00:49:05;;;;;;;6.80;4.70;;;;;21.70;100331.00;;;;2056558;28;20698;-64
2023/11/26 00:50:08;;;;;;;5.90;4.00;;;;;21.70;100335.00;;;;2063355;28;20215;-64
2023/11/26 00:51:16;;;;;;;5.03;3.45;;;;;21.70;100325.00;;;;2063587;28;20272;-64
2023/11/26 00:52:16;;;;;;;6.90;4.57;;;;;21.70;100335.00;;;;2060909;28;20203;-64
2023/11/26 00:53:16;;;;;;;7.10;5.37;;;;;21.70;100338.00;;;;2055311;28;20261;-64
2023/11/26 00:54:17;;;;;;;5.93;4.03;;;;;21.70;100337.00;;;;2057650;28;20225;-64
2023/11/26 00:55:17;;;;;;;6.90;4.57;;;;;21.70;100347.00;;;;2065083;28;20231;-64
2023/11/26 00:56:18;;;;;;;6.80;4.27;;;;;21.70;100338.00;;;;2064302;28;20214;-64
2023/11/26 00:57:18;;;;;;;5.10;3.80;;;;;21.60;100342.00;;;;2065098;28;20683;-64
2023/11/26 00:58:19;;;;;;;7.03;4.03;;;;;21.70;100347.00;;;;2064656;28;20729;-64
2023/11/26 00:59:19;;;;;;;7.43;4.25;;;;;21.60;100350.00;;;;2055317;28;20709;-64
2023/11/26 01:00:20;;;;;;;7.10;4.10;;;;;21.60;100335.00;;;;2064988;28;20218;-64
2023/11/26 01:01:20;;;;;;;8.17;4.57;;;;;21.60;100340.00;;;;2066514;28;20311;-64
2023/11/26 01:02:22;;;;;;;5.53;4.20;;;;;21.60;100341.00;;;;2062260;28;20209;-64
2023/11/26 01:03:23;;;;;;;6.22;4.53;;;;;21.60;100344.00;;;;2064957;28;20202;-64
2023/11/26 01:04:24;;;;;;;5.90;3.30;;;;;21.60;100344.00;;;;2055397;28;20657;-64
2023/11/26 01:05:24;;;;;;;6.53;4.23;;;;;21.60;100334.00;;;;2065136;28;20880;-64
2023/11/26 01:06:25;;;;;;;4.63;3.50;;;;;21.60;100335.00;;;;2067807;28;20481;-64
2023/11/26 01:07:26;;;;;;;6.37;4.13;;;;;21.60;100342.00;;;;2062752;28;20709;-64
2023/11/26 01:08:26;;;;;;;5.57;3.53;;;;;21.70;100342.00;;;;2063746;28;20357;-64
2023/11/26 01:09:26;;;;;;;5.10;3.60;;;;;21.60;100344.00;;;;2054548;28;20223;-64
2023/11/26 01:10:27;;;;;;;4.67;3.50;;;;;21.60;100336.00;;;;2064109;28;20592;-64
2023/11/26 01:11:27;;;;;;;4.80;3.10;;;;;21.60;100340.00;;;;2069718;28;20570;-64
2023/11/26 01:12:27;;;;;;;5.10;3.53;;;;;21.60;100335.00;;;;2065107;28;20255;-65
2023/11/26 01:13:29;;;;;;;5.30;3.90;;;;;21.60;100337.00;;;;2063932;28;20243;-64
2023/11/26 01:14:29;;;;;;;5.07;3.35;;;;;21.60;100335.00;;;;2054159;28;20230;-64
2023/11/26 01:15:33;;;;;;;4.25;2.85;;;;;21.60;100340.00;;;;2071006;28;20214;-64
2023/11/26 01:16:33;;;;;;;4.22;3.45;;;;;21.60;100345.00;;;;2065248;28;20227;-64
2023/11/26 01:17:35;;;;;;;3.20;2.40;;;;;21.50;100348.00;;;;2064739;28;20714;-64
2023/11/26 01:18:38;;;;;;;5.70;4.05;;;;;21.60;100344.00;;;;2067617;28;20222;-64
2023/11/26 01:19:39;;;;;;;3.80;3.30;;;;;21.60;100343.00;;;;2059487;28;20219;-64
2023/11/26 01:20:39;;;;;;;6.93;3.67;;;;;21.60;100351.00;;;;2053117;28;20585;-64
2023/11/26 01:21:39;;;;;;;4.80;3.10;;;;;21.60;100354.00;;;;2056153;28;20614;-64
2023/11/26 01:22:40;;;;;;;4.37;2.97;;;;;21.50;100349.00;;;;2060926;28;20243;-64
2023/11/26 01:23:40;;;;;;;4.33;3.20;;;;;21.50;100346.00;;;;2055393;28;20222;-64
2023/11/26 01:24:41;;;;;;;6.00;3.27;;;;;21.50;100350.00;;;;2064662;28;20226;-64
2023/11/26 01:25:41;;;;;;;3.87;2.80;;;;;21.60;100351.00;;;;2062742;28;20221;-64
2023/11/26 01:26:42;;;;;;;5.43;3.40;;;;;21.50;100358.00;;;;2063951;28;20249;-64
2023/11/26 01:27:42;;;;;;;5.17;2.90;;;;;21.50;100356.00;;;;2066176;28;20214;-64
2023/11/26 01:28:42;;;;;;;4.23;2.80;;;;;21.50;100357.00;;;;2058134;28;20242;-64
2023/11/26 01:29:43;;;;;;;4.00;3.03;;;;;21.50;100358.00;;;;2064771;28;20578;-64
2023/11/26 01:30:44;;;;;;;5.43;3.13;;;;;21.50;100354.00;;;;2064820;28;20586;-64
2023/11/26 01:31:44;;;;;;;3.83;2.90;;;;;21.50;100359.00;;;;2064828;28;20233;-64
2023/11/26 01:32:45;;;;;;;6.00;3.10;;;;;21.50;100356.00;;;;2064320;28;20239;-64
2023/11/26 01:33:45;;;;;;;3.63;2.70;;;;;21.50;100352.00;;;;2052576;28;20589;-64
2023/11/26 01:34:46;;;;;;;4.20;2.67;;;;;21.50;100358.00;;;;2065282;28;20789;-64
2023/11/26 01:35:46;;;;;;;4.87;3.00;;;;;21.50;100357.00;;;;2063159;28;20219;-64
2023/11/26 01:36:46;;;;;;;5.77;3.60;;;;;21.50;100360.00;;;;2062724;28;20260;-64
2023/11/26 01:37:47;;;;;;;4.90;3.07;;;;;21.50;100355.00;;;;2070570;28;20226;-64
2023/11/26 01:38:47;;;;;;;6.80;3.43;;;;;21.50;100359.00;;;;2057792;28;20207;-64
2023/11/26 01:39:47;;;;;;;5.83;3.33;;;;;21.50;100364.00;;;;2064448;28;20245;-64
2023/11/26 01:40:48;;;;;;;4.10;2.80;;;;;21.50;100358.00;;;;2064629;28;20219;-64
2023/11/26 01:41:48;;;;;;;4.90;2.90;;;;;21.40;100353.00;;;;2064450;28;20519;-64
2023/11/26 01:42:48;;;;;;;5.00;3.20;;;;;21.50;100351.00;;;;2061692;28;20223;-64
2023/11/26 01:43:49;;;;;;;8.70;3.33;;;;;21.40;100361.00;;;;2054902;28;20297;-64
2023/11/26 01:44:50;;;;;;;3.70;2.40;;;;;21.50;100354.00;;;;2064129;28;20238;-64
2023/11/26 01:45:51;;;;;;;4.70;3.00;;;;;21.40;100355.00;;;;2066684;28;20553;-64
2023/11/26 01:46:51;;;;;;;3.33;2.63;;;;;21.50;100364.00;;;;2065327;28;20667;-64
2023/11/26 01:47:51;;;;;;;4.10;2.60;;;;;21.40;100334.00;;;;2066227;28;20790;-64
2023/11/26 01:48:52;;;;;;;4.60;3.07;;;;;21.50;100359.00;;;;2054107;28;20218;-64
2023/11/26 01:49:52;;;;;;;4.67;2.77;;;;;21.50;100361.00;;;;2053837;28;20242;-64
2023/11/26 01:50:52;;;;;;;3.93;2.80;;;;;21.50;100370.00;;;;2048266;28;20259;-64
2023/11/26 01:51:53;;;;;;;5.40;3.03;;;;;21.40;100366.00;;;;2063684;28;20211;-64
2023/11/26 01:52:54;;;;;;;4.27;2.77;;;;;21.40;100369.00;;;;2061143;28;20238;-64
2023/11/26 01:53:54;;;;;;;4.80;2.73;;;;;21.40;100369.00;;;;2045866;28;20894;-64
2023/11/26 01:54:54;;;;;;;4.20;3.17;;;;;21.40;100365.00;;;;2057774;28;20212;-64
2023/11/26 01:55:55;;;;;;;3.60;2.67;;;;;21.40;100370.00;;;;2068062;28;20724;-64
2023/11/26 01:56:56;;;;;;;4.70;3.00;;;;;21.40;100373.00;;;;2076039;28;20911;-64
2023/11/26 01:57:56;;;;;;;4.40;2.78;;;;;21.40;100362.00;;;;2066302;28;20222;-64
2023/11/26 01:58:57;;;;;;;4.10;2.93;;;;;21.40;100373.00;;;;2057947;28;20237;-64
2023/11/26 01:59:57;;;;;;;5.87;2.73;;;;;21.40;100366.00;;;;2065064;28;20700;-64
2023/11/26 02:00:57;;;;;;;4.10;2.90;;;;;21.40;100366.00;;;;2056995;28;20306;-64
2023/11/26 02:01:58;;;;;;;5.57;2.70;;;;;21.40;100365.00;;;;2047934;28;20287;-64
2023/11/26 02:02:58;;;;;;;4.57;3.33;;;;;21.40;100374.00;;;;2063671;28;20691;-64
2023/11/26 02:03:58;;;;;;;5.00;3.00;;;;;21.40;100362.00;;;;2053639;28;20235;-64
2023/11/26 02:04:59;;;;;;;3.97;2.90;;;;;21.40;100363.00;;;;2063795;28;20310;-64
2023/11/26 02:05:59;;;;;;;5.33;3.50;;;;;21.40;100346.00;;;;2068080;28;20213;-64
2023/11/26 02:06:59;;;;;;;3.33;2.57;;;;;21.40;100364.00;;;;2064947;28;20226;-64
2023/11/26 02:08:00;;;;;;;4.00;2.80;;;;;21.30;100367.00;;;;2055600;28;20226;-64
2023/11/26 02:09:01;;;;;;;3.80;2.40;;;;;21.30;100366.00;;;;2055156;28;20234;-64
2023/11/26 02:10:01;;;;;;;4.37;2.70;;;;;21.40;100323.00;;;;2053830;28;22446;-64
2023/11/26 02:11:02;;;;;;;4.17;2.90;;;;;21.40;100360.00;;;;2059342;28;20797;-64
2023/11/26 02:12:07;;;;;;;3.40;2.60;;;;;21.30;100365.00;;;;2064656;28;20226;-64
2023/11/26 02:13:08;;;;;;;4.28;2.40;;;;;21.30;100373.00;;;;2065104;28;20246;-63
2023/11/26 02:14:08;;;;;;;4.70;2.67;;;;;21.30;100370.00;;;;2054335;28;20218;-63
2023/11/26 02:15:09;;;;;;;3.03;2.37;;;;;21.30;100363.00;;;;2064518;28;20853;-63
2023/11/26 02:16:10;;;;;;;3.58;2.63;;;;;21.30;100371.00;;;;2062378;28;20253;-63
2023/11/26 02:17:10;;;;;;;3.63;2.47;;;;;21.30;100372.00;;;;2055588;28;20636;-63
2023/11/26 02:18:11;;;;;;;3.70;2.70;;;;;21.40;100366.00;;;;2064278;28;20724;-63
2023/11/26 02:19:32;;;;;;;3.80;2.60;;;;;21.40;100360.00;;;;2054554;28;20674;-63
2023/11/26 02:20:32;;;;;;;4.70;3.15;;;;;21.30;100368.00;;;;2063510;28;20614;-63
2023/11/26 02:21:32;;;;;;;4.70;3.23;;;;;21.30;100368.00;;;;2062391;28;20223;-63
2023/11/26 02:22:33;;;;;;;5.13;3.10;;;;;21.30;100365.00;;;;2063470;28;20214;-63
2023/11/26 02:23:36;;;;;;;5.87;3.07;;;;;21.30;100359.00;;;;2064012;28;20338;-63
2023/11/26 02:24:44;;;;;;;4.72;2.83;;;;;21.30;100362.00;;;;2053984;28;20662;-63
2023/11/26 02:25:45;;;;;;;3.58;2.60;;;;;21.30;100364.00;;;;2060405;28;20335;-63
2023/11/26 02:26:45;;;;;;;5.33;3.97;;;;;21.30;100370.00;;;;2064065;28;20230;-64
2023/11/26 02:27:46;;;;;;;3.60;2.53;;;;;21.30;100367.00;;;;2066081;28;20291;-64
2023/11/26 02:28:47;;;;;;;4.38;2.95;;;;;21.30;100362.00;;;;2053069;28;20293;-64
2023/11/26 02:29:47;;;;;;;4.50;2.90;;;;;21.30;100361.00;;;;2066529;28;20759;-64
2023/11/26 02:30:47;;;;;;;3.97;2.57;;;;;21.30;100356.00;;;;2066069;28;20215;-64
2023/11/26 02:31:48;;;;;;;3.83;2.97;;;;;21.30;100359.00;;;;2060603;28;20250;-64
2023/11/26 02:32:48;;;;;;;4.90;2.73;;;;;21.20;100359.00;;;;2066919;28;20227;-64
2023/11/26 02:33:49;;;;;;;3.20;2.60;;;;;21.30;100348.00;;;;2054828;28;20233;-64
2023/11/26 02:34:49;;;;;;;4.60;2.60;;;;;21.30;100355.00;;;;2061853;28;20245;-64
2023/11/26 02:35:49;;;;;;;5.07;2.83;;;;;21.30;100358.00;;;;2064202;28;20251;-64
2023/11/26 02:36:49;;;;;;;4.40;3.10;;;;;21.30;100358.00;;;;2064291;28;20233;-64
2023/11/26 02:37:50;;;;;;;4.07;2.70;;;;;21.20;100351.00;;;;2058970;28;20637;-64
2023/11/26 02:38:52;;;;;;;4.00;2.63;;;;;21.20;100344.00;;;;2054413;28;20605;-64
2023/11/26 02:39:52;;;;;;;5.00;3.30;;;;;21.20;100360.00;;;;2063915;28;20694;-64
2023/11/26 02:40:53;;;;;;;5.80;2.47;;;;;21.20;100355.00;;;;2064442;28;20234;-64
2023/11/26 02:41:53;;;;;;;4.70;2.60;;;;;21.20;100361.00;;;;2064681;28;20272;-64
2023/11/26 02:42:56;;;;;;;3.95;2.92;;;;;21.20;100348.00;;;;2062697;28;20258;-64
2023/11/26 02:43:56;;;;;;;3.05;2.40;;;;;21.30;100356.00;;;;2054341;28;20210;-64
2023/11/26 02:44:57;;;;;;;4.40;2.40;;;;;21.30;100353.00;;;;2063416;28;20328;-64
2023/11/26 02:45:58;;;;;;;4.20;2.77;;;;;21.20;100349.00;;;;2063484;28;20211;-64
2023/11/26 02:46:58;;;;;;;5.13;3.00;;;;;21.20;100349.00;;;;2063968;28;20219;-64
2023/11/26 02:47:58;;;;;;;6.03;3.30;;;;;21.20;100346.00;;;;2064234;28;20752;-64
2023/11/26 02:48:58;;;;;;;3.87;2.57;;;;;21.20;100348.00;;;;2052093;28;20227;-63
2023/11/26 02:49:59;;;;;;;3.33;2.40;;;;;21.20;100356.00;;;;2064276;28;20300;-63
2023/11/26 02:50:59;;;;;;;3.50;2.50;;;;;21.20;100359.00;;;;2064350;28;20214;-63
2023/11/26 02:51:59;;;;;;;4.70;2.70;;;;;21.20;100353.00;;;;2066185;28;20257;-63
2023/11/26 02:53:00;;;;;;;2.60;2.07;;;;;21.20;100359.00;;;;2064193;28;20219;-63
2023/11/26 02:54:00;;;;;;;5.37;2.80;;;;;21.20;100358.00;;;;2059153;28;20269;-63
2023/11/26 02:55:00;;;;;;;3.80;2.50;;;;;21.20;100352.00;;;;2066068;28;20227;-63
2023/11/26 02:56:01;;;;;;;3.53;2.60;;;;;21.20;100357.00;;;;2063524;28;20272;-63
2023/11/26 02:57:01;;;;;;;3.97;2.50;;;;;21.20;100357.00;;;;2062125;28;20234;-63
2023/11/26 02:58:01;;;;;;;5.80;2.43;;;;;21.20;100356.00;;;;2064297;28;20227;-63
2023/11/26 02:59:02;;;;;;;4.30;2.63;;;;;21.20;100352.00;;;;2055332;28;20231;-63
2023/11/26 03:00:15;;;;;;;3.33;2.30;;;;;21.20;100359.00;;;;2064105;28;20310;-63
2023/11/26 03:01:19;;;;;;;3.25;2.55;;;;;21.20;100360.00;;;;2060552;28;20219;-63
2023/11/26 03:02:19;;;;;;;3.25;2.63;;;;;21.10;100357.00;;;;2063904;28;20566;-63
2023/11/26 03:03:20;;;;;;;3.50;2.53;;;;;21.10;100349.00;;;;2065857;28;20265;-63
2023/11/26 03:04:21;;;;;;;3.33;2.80;;;;;21.10;100354.00;;;;2054657;28;20215;-63
2023/11/26 03:05:22;;;;;;;3.88;2.45;;;;;21.10;100348.00;;;;2063538;28;20299;-63
2023/11/26 03:06:26;;;;;;;3.87;2.60;;;;;21.20;100356.00;;;;2070473;28;20221;-64
2023/11/26 03:07:27;;;;;;;3.45;2.40;;;;;21.10;100361.00;;;;2062178;28;20214;-64
2023/11/26 03:08:32;;;;;;;3.58;2.45;;;;;21.20;100363.00;;;;2063734;28;20250;-64
2023/11/26 03:13:12;;;;;;;4.78;2.70;;;;;21.10;100360.00;;;;2068235;28;20225;-64
2023/11/26 03:14:13;;;;;;;5.35;3.28;;;;;21.10;100352.00;;;;2053620;28;20218;-64
2023/11/26 03:15:14;;;;;;;3.83;2.35;;;;;21.10;100357.00;;;;2063186;28;20226;-64
2023/11/26 03:16:15;;;;;;;6.23;2.60;;;;;21.10;100360.00;;;;2063559;28;20270;-64
2023/11/26 03:17:15;;;;;;;4.00;2.50;;;;;21.10;100361.00;;;;2065709;28;20210;-64
2023/11/26 03:18:17;;;;;;;4.57;3.10;;;;;21.10;100360.00;;;;2063547;28;20219;-64
2023/11/26 03:19:17;;;;;;;3.65;2.67;;;;;21.10;100354.00;;;;2045500;28;20211;-64
2023/11/26 03:20:19;;;;;;;5.03;2.60;;;;;21.10;100359.00;;;;2063195;28;20227;-64
2023/11/26 03:21:26;;;;;;;2.92;2.15;;;;;21.10;100362.00;;;;2063161;28;20219;-64
2023/11/26 03:22:27;;;;;;;4.50;2.40;;;;;21.10;100371.00;;;;2066730;28;20202;-64
2023/11/26 03:23:27;;;;;;;3.90;2.57;;;;;21.10;100367.00;;;;2063933;28;20203;-64
2023/11/26 03:24:27;;;;;;;2.83;2.10;;;;;21.10;100364.00;;;;2053852;28;20207;-64
2023/11/26 03:25:28;;;;;;;3.47;2.23;;;;;21.10;100364.00;;;;2063816;28;20238;-64
2023/11/26 03:26:28;;;;;;;5.83;3.40;;;;;21.10;100369.00;;;;2063336;28;20207;-64
2023/11/26 03:27:28;;;;;;;3.53;2.50;;;;;21.10;100362.00;;;;2068282;28;20206;-64
2023/11/26 03:28:29;;;;;;;3.47;2.57;;;;;21.10;100369.00;;;;2063749;28;20203;-64
2023/11/26 03:29:29;;;;;;;4.70;2.80;;;;;21.10;100364.00;;;;2051401;28;20211;-64
2023/11/26 03:30:30;;;;;;;4.87;2.53;;;;;21.10;100367.00;;;;2063219;28;20298;-64
2023/11/26 03:31:30;;;;;;;4.30;2.77;;;;;21.10;100364.00;;;;2063036;28;20226;-64
2023/11/26 03:32:32;;;;;;;6.63;2.83;;;;;21.10;100372.00;;;;2063366;28;20207;-64
2023/11/26 03:33:32;;;;;;;4.57;2.50;;;;;21.00;100375.00;;;;2063351;28;20873;-64
2023/11/26 03:34:32;;;;;;;3.57;2.60;;;;;21.10;100372.00;;;;2053642;28;20234;-64
2023/11/26 03:35:33;;;;;;;5.80;2.70;;;;;21.10;100372.00;;;;2063749;28;20866;-64
2023/11/26 03:36:33;;;;;;;5.13;2.33;;;;;21.00;100379.00;;;;2063008;28;20222;-64
2023/11/26 03:37:33;;;;;;;3.43;2.27;;;;;21.10;100384.00;;;;2063803;28;20214;-64
2023/11/26 03:38:34;;;;;;;2.83;1.93;;;;;21.00;100380.00;;;;2062703;28;20203;-64
2023/11/26 03:39:40;;;;;;;4.80;2.47;;;;;21.00;100380.00;;;;2053984;28;20221;-64
2023/11/26 03:40:40;;;;;;;4.55;2.97;;;;;21.00;100376.00;;;;2063719;28;20249;-64
2023/11/26 03:41:41;;;;;;;3.00;2.17;;;;;21.00;100375.00;;;;2063644;28;20281;-64
2023/11/26 03:42:41;;;;;;;3.73;2.57;;;;;21.00;100378.00;;;;2062059;28;20219;-64
2023/11/26 03:43:41;;;;;;;3.30;2.43;;;;;21.00;100379.00;;;;2051870;28;20669;-64
2023/11/26 03:44:42;;;;;;;4.10;2.60;;;;;21.00;100384.00;;;;2063685;28;20218;-64
2023/11/26 03:45:42;;;;;;;4.23;2.63;;;;;21.00;100377.00;;;;2064378;28;20215;-64
2023/11/26 03:46:42;;;;;;;5.50;2.87;;;;;21.00;100377.00;;;;2068213;28;20212;-64
2023/11/26 03:47:43;;;;;;;3.43;2.33;;;;;21.00;100378.00;;;;2063605;28;20670;-64
2023/11/26 03:48:45;;;;;;;5.10;2.43;;;;;21.00;100376.00;;;;2056627;28;20701;-64
2023/11/26 03:49:45;;;;;;;4.70;2.70;;;;;21.00;100377.00;;;;2063790;28;20790;-64
2023/11/26 03:50:45;;;;;;;5.23;2.93;;;;;21.00;100381.00;;;;2064809;28;20321;-64
2023/11/26 03:51:46;;;;;;;3.30;2.30;;;;;21.00;100371.00;;;;2067875;28;20259;-64
2023/11/26 03:52:46;;;;;;;4.57;2.30;;;;;21.00;100379.00;;;;2061595;28;20260;-64
2023/11/26 03:53:46;;;;;;;4.23;2.23;;;;;21.00;100381.00;;;;2057905;28;20665;-64
2023/11/26 03:54:47;;;;;;;3.37;2.10;;;;;21.00;100377.00;;;;2069882;28;20222;-64
2023/11/26 03:55:49;;;;;;;3.10;2.00;;;;;21.00;100381.00;;;;2061805;28;20218;-64
2023/11/26 03:56:49;;;;;;;4.65;2.42;;;;;21.00;100373.00;;;;2059927;28;20219;-64
2023/11/26 03:57:49;;;;;;;4.93;3.07;;;;;21.00;100383.00;;;;2065834;28;20218;-64
2023/11/26 03:58:50;;;;;;;3.97;2.60;;;;;20.90;100377.00;;;;2058087;28;20265;-64
2023/11/26 03:59:50;;;;;;;6.00;2.53;;;;;20.90;100379.00;;;;2062807;28;20218;-64
2023/11/26 04:00:52;;;;;;;3.40;2.50;;;;;20.90;100378.00;;;;2067177;28;20227;-64
2023/11/26 04:01:52;;;;;;;3.50;2.13;;;;;20.90;100381.00;;;;2063560;28;20219;-64
2023/11/26 04:02:53;;;;;;;5.63;2.40;;;;;20.90;100378.00;;;;2063709;28;20215;-64
2023/11/26 04:03:53;;;;;;;2.90;2.00;;;;;20.90;100376.00;;;;2054170;28;20215;-64
2023/11/26 04:04:54;;;;;;;3.13;1.97;;;;;20.90;100375.00;;;;2066085;28;20241;-64
2023/11/26 04:05:54;;;;;;;2.70;1.93;;;;;21.00;100373.00;;;;2067164;28;20215;-64
2023/11/26 04:06:54;;;;;;;5.17;2.40;;;;;21.00;100362.00;;;;2061951;28;20929;-64
2023/11/26 04:07:55;;;;;;;4.17;2.40;;;;;21.00;100367.00;;;;2066033;28;20219;-64
2023/11/26 04:08:55;;;;;;;3.87;2.10;;;;;20.90;100374.00;;;;2054246;28;20210;-64
2023/11/26 04:09:55;;;;;;;3.20;2.10;;;;;20.90;100368.00;;;;2067335;28;20237;-64
2023/11/26 04:10:56;;;;;;;4.67;2.57;;;;;20.90;100366.00;;;;2067480;28;20223;-64
2023/11/26 04:11:56;;;;;;;6.80;2.50;;;;;20.90;100367.00;;;;2060810;28;20692;-64
2023/11/26 04:12:58;;;;;;;4.10;2.00;;;;;20.90;100372.00;;;;2062985;28;20674;-64
2023/11/26 04:13:59;;;;;;;2.70;1.90;;;;;20.90;100368.00;;;;2053533;28;20230;-64
2023/11/26 04:15:02;;;;;;;4.45;2.80;;;;;20.90;100376.00;;;;2063483;28;20326;-64
2023/11/26 04:16:04;;;;;;;6.00;2.40;;;;;20.90;100371.00;;;;2063722;28;20222;-64
2023/11/26 04:17:05;;;;;;;4.35;2.42;;;;;20.90;100371.00;;;;2065433;28;20233;-64
2023/11/26 04:18:05;;;;;;;3.13;2.03;;;;;20.90;100373.00;;;;2064810;28;20213;-64
2023/11/26 04:19:05;;;;;;;3.80;2.23;;;;;20.90;100385.00;;;;2053175;28;20227;-64
2023/11/26 04:20:08;;;;;;;4.27;2.30;;;;;20.90;100375.00;;;;2065224;28;20324;-64
2023/11/26 04:21:08;;;;;;;4.03;2.33;;;;;20.90;100366.00;;;;2064085;28;20301;-64
2023/11/26 04:22:08;;;;;;;3.83;2.17;;;;;20.90;100383.00;;;;2062615;28;20780;-63
2023/11/26 04:23:09;;;;;;;3.20;2.60;;;;;20.90;100387.00;;;;2063339;28;20733;-63
2023/11/26 04:24:09;;;;;;;3.80;2.10;;;;;20.90;100368.00;;;;2053955;28;20222;-63
2023/11/26 04:25:09;;;;;;;4.00;2.80;;;;;20.90;100373.00;;;;2071760;28;20214;-63
2023/11/26 04:26:10;;;;;;;4.33;2.17;;;;;20.90;100377.00;;;;2071812;28;20692;-63
2023/11/26 04:27:10;;;;;;;4.20;2.53;;;;;20.80;100374.00;;;;2065146;28;20230;-63
2023/11/26 04:28:15;;;;;;;3.73;2.00;;;;;20.90;100382.00;;;;2064012;28;20207;-63
2023/11/26 04:29:16;;;;;;;4.20;2.30;;;;;20.90;100380.00;;;;2059093;28;20261;-64
2023/11/26 04:30:17;;;;;;;3.27;2.10;;;;;20.90;100376.00;;;;2066909;28;20705;-64
2023/11/26 04:31:17;;;;;;;3.70;2.55;;;;;20.80;100377.00;;;;2065118;28;20751;-64
2023/11/26 04:32:17;;;;;;;3.57;2.20;;;;;20.90;100373.00;;;;2065587;28;20253;-64
2023/11/26 04:33:18;;;;;;;4.47;2.17;;;;;20.90;100373.00;;;;2065850;28;20218;-64
2023/11/26 04:34:19;;;;;;;4.90;2.90;;;;;20.90;100373.00;;;;2054875;28;20211;-64
2023/11/26 04:35:19;;;;;;;4.80;2.50;;;;;20.90;100381.00;;;;2065779;28;20529;-64
2023/11/26 04:36:20;;;;;;;3.23;2.13;;;;;20.90;100387.00;;;;2065522;28;20345;-64
2023/11/26 04:37:20;;;;;;;3.30;2.47;;;;;20.90;100380.00;;;;2065351;28;20623;-64
2023/11/26 04:38:21;;;;;;;4.37;2.07;;;;;20.90;100384.00;;;;2066601;28;20636;-64
2023/11/26 04:39:21;;;;;;;4.07;2.70;;;;;20.90;100377.00;;;;2056108;28;20239;-64
2023/11/26 04:40:22;;;;;;;3.90;2.20;;;;;20.90;100380.00;;;;2064503;28;20247;-64
2023/11/26 04:41:22;;;;;;;5.17;2.17;;;;;20.90;100388.00;;;;2065249;28;20603;-64
2023/11/26 04:42:22;;;;;;;5.80;2.57;;;;;20.90;100383.00;;;;2064585;28;20223;-64
2023/11/26 04:43:23;;;;;;;5.00;2.67;;;;;20.90;100386.00;;;;2066116;28;20238;-64
2023/11/26 04:44:23;;;;;;;3.13;2.07;;;;;20.90;100372.00;;;;2055777;28;20241;-64
2023/11/26 04:45:23;;;;;;;2.37;2.00;;;;;20.80;100381.00;;;;2065715;28;20301;-64
2023/11/26 04:46:24;;;;;;;3.30;2.43;;;;;20.80;100379.00;;;;2072711;28;20696;-64
2023/11/26 04:47:24;;;;;;;6.00;2.20;;;;;20.80;100378.00;;;;2065293;28;20698;-64
2023/11/26 04:48:24;;;;;;;3.70;2.00;;;;;20.80;100385.00;;;;2068696;28;20345;-64
2023/11/26 04:49:25;;;;;;;4.37;2.23;;;;;20.80;100375.00;;;;2055053;28;20761;-64
2023/11/26 04:50:25;;;;;;;3.90;2.20;;;;;20.80;100381.00;;;;2065940;28;20591;-64
2023/11/26 04:51:25;;;;;;;3.90;2.63;;;;;20.80;100382.00;;;;2065164;28;20495;-64
2023/11/26 04:52:27;;;;;;;4.35;2.78;;;;;20.80;100385.00;;;;2064237;28;20234;-64
2023/11/26 04:53:27;;;;;;;5.80;2.60;;;;;20.80;100390.00;;;;2064989;28;20810;-64
2023/11/26 04:54:28;;;;;;;3.53;2.50;;;;;20.80;100382.00;;;;2055532;28;20218;-64
2023/11/26 04:55:28;;;;;;;3.00;2.17;;;;;20.80;100379.00;;;;2065792;28;20206;-64
2023/11/26 04:56:28;;;;;;;5.17;2.67;;;;;20.80;100380.00;;;;2064710;28;20211;-64
2023/11/26 04:57:30;;;;;;;6.90;2.80;;;;;20.80;100379.00;;;;2065715;28;20205;-64
2023/11/26 04:58:30;;;;;;;4.85;2.42;;;;;20.80;100379.00;;;;2065083;28;20293;-64
2023/11/26 04:59:30;;;;;;;7.33;2.90;;;;;20.80;100385.00;;;;2055260;28;20261;-64
2023/11/26 05:00:31;;;;;;;4.40;2.43;;;;;20.80;100379.00;;;;2070912;28;20253;-64
2023/11/26 05:01:31;;;;;;;4.60;2.90;;;;;20.80;100375.00;;;;2065022;28;20580;-64
2023/11/26 05:02:32;;;;;;;4.43;2.57;;;;;20.80;100371.00;;;;2064566;28;20266;-64
2023/11/26 05:03:32;;;;;;;3.10;2.30;;;;;20.80;100381.00;;;;2065062;28;20214;-64
2023/11/26 05:04:32;;;;;;;4.93;2.43;;;;;20.80;100379.00;;;;2061195;28;20218;-64